Time;durP1;ratioP1;P1;durP2;ratioP2;P2;SDS_P1;SDS_P2;PMS_P1;PMS_P2;Temp;Humidity;BMP_temperature;BMP_pressure;BME280_temperature;BME280_humidity;BME280_pressure;Samples;Min_cycle;Max_cycle;Signal;HPM_P1;HPM_P2
2023/08/09 00:00:40;;;;;;;3.78;1.70;;;;;;;17.51;83.28;100561.00;4971569;28;20395;-71
2023/08/09 00:03:05;;;;;;;1.60;1.50;;;;;;;17.58;81.69;100568.03;4972531;28;20038;-72
2023/08/09 00:05:31;;;;;;;2.72;1.40;;;;;;;17.03;82.86;100515.25;4954760;28;20481;-71
2023/08/09 00:07:56;;;;;;;2.88;1.60;;;;;;;17.27;83.06;100582.47;4972181;28;20050;-71
2023/08/09 00:10:22;;;;;;;2.70;1.50;;;;;;;17.56;82.58;100587.16;4971977;28;20059;-71
2023/08/09 00:12:48;;;;;;;4.57;1.50;;;;;;;17.52;82.22;100577.50;4972479;28;20027;-71
2023/08/09 00:15:14;;;;;;;2.53;1.80;;;;;;;17.72;85.45;100586.44;4971663;28;20030;-71
2023/08/09 00:17:40;;;;;;;3.30;1.52;;;;;;;17.65;84.54;100552.41;4971890;28;20496;-72
2023/08/09 00:20:08;;;;;;;2.63;1.95;;;;;;;17.44;84.61;100533.06;4971921;28;20529;-72
2023/08/09 00:22:33;;;;;;;4.07;2.05;;;;;;;17.45;83.63;100568.75;4971965;28;20026;-72
2023/08/09 00:24:59;;;;;;;2.50;1.70;;;;;;;17.51;83.45;100570.53;4971780;28;20038;-71
2023/08/09 00:27:25;;;;;;;1.73;1.40;;;;;;;17.35;82.59;100523.41;4971559;28;20492;-71
2023/08/09 00:29:51;;;;;;;2.38;1.73;;;;;;;17.70;82.70;100574.22;4971336;28;20046;-71
2023/08/09 00:32:16;;;;;;;2.75;1.67;;;;;;;17.66;82.51;100570.69;4979286;28;20053;-73
2023/08/09 00:34:41;;;;;;;3.33;1.75;;;;;;;17.71;80.74;100581.19;4973360;28;20057;-73
2023/08/09 00:37:07;;;;;;;1.88;1.50;;;;;;;17.91;80.55;100579.63;4970432;28;20699;-72
2023/08/09 00:39:32;;;;;;;2.97;1.50;;;;;;;18.01;80.93;100569.31;4971697;28;20035;-72
2023/08/09 00:41:58;;;;;;;1.98;1.40;;;;;;;18.02;80.85;100571.91;4971387;28;20027;-72
2023/08/09 00:44:24;;;;;;;3.13;1.70;;;;;;;17.62;81.79;100533.25;4971010;28;20125;-72
2023/08/09 00:46:50;;;;;;;2.22;1.60;;;;;;;17.37;82.14;100510.38;4971760;28;20025;-72
2023/08/09 00:49:16;;;;;;;2.28;1.80;;;;;;;17.39;82.98;100561.72;4971582;28;20033;-72
2023/08/09 00:51:42;;;;;;;2.88;1.52;;;;;;;17.27;83.63;100566.81;4971103;28;20023;-72
2023/08/09 00:54:07;;;;;;;5.18;1.80;;;;;;;17.25;84.12;100553.75;4970035;28;20387;-71
2023/08/09 00:56:33;;;;;;;1.83;1.52;;;;;;;17.41;84.76;100586.13;4970362;28;20109;-70
2023/08/09 00:58:59;;;;;;;4.10;1.70;;;;;;;17.17;85.72;100576.28;4971301;28;20609;-70
2023/08/09 01:01:25;;;;;;;2.00;1.63;;;;;;;17.08;84.92;100571.81;4971688;28;20030;-71
2023/08/09 01:03:50;;;;;;;1.75;1.60;;;;;;;17.10;84.74;100564.03;4971603;28;20662;-71
2023/08/09 01:06:37;;;;;;;2.35;1.80;;;;;;;17.35;84.47;100585.19;4971344;28;20105;-71
2023/08/09 01:09:17;;;;;;;3.88;1.70;;;;;;;17.19;85.24;100579.78;4971091;28;20019;-71
2023/08/09 01:11:52;;;;;;;2.75;1.85;;;;;;;16.92;86.05;100544.69;4970862;28;20513;-71
2023/08/09 01:14:20;;;;;;;3.45;1.80;;;;;;;17.02;85.73;100555.22;4971334;28;20046;-72
2023/08/09 01:16:46;;;;;;;2.42;1.80;;;;;;;17.21;85.25;100582.38;4971125;28;20089;-72
2023/08/09 01:19:26;;;;;;;1.90;1.70;;;;;;;16.78;86.90;100578.38;4970915;28;20031;-72
2023/08/09 01:21:56;;;;;;;1.80;1.65;;;;;;;16.93;86.16;100574.25;4970820;28;20034;-71
2023/08/09 01:24:22;;;;;;;1.98;1.75;;;;;;;16.90;87.35;100571.59;4971122;28;20134;-72
2023/08/09 01:26:48;;;;;;;3.55;1.77;;;;;;;16.92;84.82;100544.69;4970784;28;20489;-72
2023/08/09 01:29:14;;;;;;;2.00;1.80;;;;;;;17.32;83.72;100580.81;4970715;28;20047;-72
2023/08/09 01:31:39;;;;;;;3.20;1.88;;;;;;;17.51;82.74;100580.97;4969427;28;20026;-72
2023/08/09 01:34:06;;;;;;;2.80;1.90;;;;;;;17.71;81.94;100575.97;4970838;28;20031;-72
2023/08/09 01:36:35;;;;;;;5.13;1.73;;;;;;;17.51;82.10;100562.69;4970258;28;20029;-73
2023/08/09 01:39:10;;;;;;;3.85;1.88;;;;;;;17.44;83.06;100574.81;4970582;28;20757;-72
2023/08/09 01:41:37;;;;;;;2.83;1.52;;;;;;;17.21;83.70;100551.09;4953799;28;20025;-71
2023/08/09 01:44:04;;;;;;;3.08;1.60;;;;;;;17.20;83.63;100542.41;4970612;28;20035;-70
2023/08/09 01:46:30;;;;;;;3.05;2.00;;;;;;;17.54;83.34;100581.88;4971197;28;20031;-70
2023/08/09 01:49:09;;;;;;;3.88;2.00;;;;;;;17.55;83.00;100577.56;4972648;28;20541;-71
2023/08/09 01:51:35;;;;;;;4.13;1.90;;;;;;;17.59;82.14;100585.41;4975328;28;20073;-72
2023/08/09 01:54:01;;;;;;;3.70;1.52;;;;;;;17.53;81.41;100568.81;4974342;28;20058;-70
2023/08/09 01:56:26;;;;;;;2.38;1.58;;;;;;;17.53;81.07;100564.47;4974977;28;20026;-70
2023/08/09 01:58:52;;;;;;;3.10;1.80;;;;;;;17.71;80.68;100578.59;4974259;28;20557;-72
2023/08/09 02:01:17;;;;;;;3.17;1.80;;;;;;;17.69;79.98;100586.38;4963957;28;20063;-71
2023/08/09 02:03:43;;;;;;;4.05;1.60;;;;;;;17.69;81.04;100590.75;4974183;28;20098;-72
2023/08/09 02:06:08;;;;;;;2.97;1.92;;;;;;;17.56;80.38;100582.78;4974578;28;20401;-72
2023/08/09 02:08:34;;;;;;;2.75;1.80;;;;;;;17.48;79.81;100560.06;4981171;28;20038;-72
2023/08/09 02:10:59;;;;;;;4.88;1.90;;;;;;;17.66;80.74;100586.38;4974247;28;20030;-72
2023/08/09 02:13:24;;;;;;;3.25;2.00;;;;;;;17.46;81.52;100589.63;4974192;28;20025;-72
2023/08/09 02:15:50;;;;;;;5.03;1.92;;;;;;;16.87;83.22;100541.09;4974143;28;20019;-72
2023/08/09 02:18:15;;;;;;;2.08;1.70;;;;;;;17.29;82.82;100602.50;4973825;28;20030;-72
2023/08/09 02:20:41;;;;;;;5.95;2.00;;;;;;;17.33;82.67;100594.72;4974155;28;20070;-71
2023/08/09 02:23:06;;;;;;;5.00;2.33;;;;;;;17.08;83.95;100597.03;4974219;28;20027;-71
2023/08/09 02:25:32;;;;;;;6.40;2.25;;;;;;;17.00;84.17;100598.66;4974073;28;20023;-72
2023/08/09 02:27:57;;;;;;;6.75;2.20;;;;;;;16.65;85.80;100592.97;4973769;28;20549;-71
2023/08/09 02:30:23;;;;;;;3.25;2.13;;;;;;;16.55;86.55;100598.91;4973940;28;20057;-71
2023/08/09 02:32:50;;;;;;;2.47;1.80;;;;;;;16.22;87.75;100573.22;4974080;28;20034;-71
2023/08/09 02:35:16;;;;;;;3.03;2.17;;;;;;;16.43;87.70;100598.72;4974089;28;20033;-71
2023/08/09 02:37:42;;;;;;;4.22;2.22;;;;;;;16.20;88.76;100609.69;4973883;28;20070;-71
2023/08/09 02:40:10;;;;;;;5.30;2.10;;;;;;;16.07;89.73;100607.72;4981235;28;20085;-71
2023/08/09 02:42:37;;;;;;;2.30;1.80;;;;;;;16.11;89.52;100606.91;4963523;28;20065;-71
2023/08/09 02:45:03;;;;;;;3.30;1.85;;;;;;;16.20;89.62;100601.88;4973684;28;20081;-72
2023/08/09 02:47:29;;;;;;;5.65;1.98;;;;;;;16.16;89.74;100615.66;4973457;28;20062;-70
2023/08/09 02:49:54;;;;;;;5.82;2.22;;;;;;;15.83;91.41;100609.06;4974021;28;20054;-71
2023/08/09 02:52:20;;;;;;;2.20;1.60;;;;;;;15.44;90.99;100542.38;4975617;28;20057;-71
2023/08/09 02:54:47;;;;;;;8.43;2.00;;;;;;;15.67;91.02;100600.91;4964470;28;20046;-70
2023/08/09 02:57:13;;;;;;;2.20;1.77;;;;;;;15.53;90.96;100553.84;4954631;28;20078;-70
2023/08/09 02:59:39;;;;;;;3.95;1.77;;;;;;;15.96;90.11;100604.94;4954760;28;20050;-70
2023/08/09 03:02:05;;;;;;;1.88;1.70;;;;;;;15.63;89.99;100549.69;4954334;28;20039;-70
2023/08/09 03:04:31;;;;;;;2.35;1.85;;;;;;;15.28;90.30;100542.13;4954576;28;20063;-71
2023/08/09 03:06:57;;;;;;;4.30;2.03;;;;;;;15.52;91.83;100622.34;4954428;28;20410;-71
2023/08/09 03:09:22;;;;;;;4.40;2.05;;;;;;;15.61;91.77;100629.44;4954571;28;20110;-71
2023/08/09 03:11:48;;;;;;;3.40;1.88;;;;;;;15.62;91.94;100631.19;4954262;28;20078;-71
2023/08/09 03:14:13;;;;;;;5.80;2.42;;;;;;;15.69;92.12;100638.28;4937004;28;20038;-71
2023/08/09 03:16:41;;;;;;;4.15;2.10;;;;;;;15.72;91.75;100628.78;4953770;28;20030;-71
2023/08/09 03:19:06;;;;;;;4.05;2.10;;;;;;;15.82;91.40;100641.13;4954225;28;20035;-71
2023/08/09 03:21:32;;;;;;;3.53;2.22;;;;;;;15.77;91.69;100653.16;4954263;28;20031;-71
2023/08/09 03:23:57;;;;;;;7.60;2.63;;;;;;;15.54;92.77;100645.81;4954282;28;20463;-71
2023/08/09 03:26:23;;;;;;;8.88;2.55;;;;;;;15.71;92.63;100655.66;4954081;28;20031;-71
2023/08/09 03:28:49;;;;;;;3.83;2.22;;;;;;;15.38;92.01;100574.38;4935788;28;20077;-71
2023/08/09 03:31:14;;;;;;;5.60;2.53;;;;;;;15.72;92.56;100647.88;4953838;28;20027;-71
2023/08/09 03:33:40;;;;;;;17.85;2.80;;;;;;;15.72;93.18;100654.81;4954228;28;20087;-71
2023/08/09 03:36:06;;;;;;;8.68;2.65;;;;;;;15.92;93.72;100658.66;4954207;28;20035;-70
2023/08/09 03:38:31;;;;;;;6.32;2.40;;;;;;;16.08;93.31;100657.22;4953898;28;20038;-71
2023/08/09 03:40:57;;;;;;;7.15;2.75;;;;;;;16.10;93.10;100668.56;4954028;28;20031;-71
2023/08/09 03:43:22;;;;;;;5.32;3.05;;;;;;;15.97;91.45;100653.56;4952845;28;20035;-72
2023/08/09 03:45:47;;;;;;;4.70;2.00;;;;;;;16.18;90.01;100679.09;4952339;28;20446;-71
2023/08/09 03:48:13;;;;;;;5.28;1.95;;;;;;;16.27;89.05;100676.63;4953460;28;20573;-71
2023/08/09 03:50:39;;;;;;;2.88;2.08;;;;;;;16.39;87.50;100675.97;4953592;28;20041;-70
2023/08/09 03:53:04;;;;;;;7.20;2.45;;;;;;;16.42;87.37;100680.38;4953676;28;20060;-70
2023/08/09 03:55:30;;;;;;;3.95;2.53;;;;;;;16.52;86.16;100684.00;4936335;29;20525;-70
2023/08/09 03:57:56;;;;;;;2.97;2.13;;;;;;;16.20;86.15;100630.53;4953446;28;20106;-70
2023/08/09 04:00:22;;;;;;;4.57;2.40;;;;;;;16.53;86.41;100691.84;4953219;28;20471;-71
2023/08/09 04:02:48;;;;;;;5.68;2.58;;;;;;;16.61;86.30;100694.56;4953063;28;20024;-70
2023/08/09 04:05:16;;;;;;;3.47;2.45;;;;;;;16.65;85.58;100689.41;4936179;29;20118;-70
2023/08/09 04:07:42;;;;;;;5.78;2.60;;;;;;;16.49;86.47;100690.91;4953262;28;20630;-70
2023/08/09 04:10:08;;;;;;;5.05;2.50;;;;;;;16.03;88.83;100694.47;4956550;28;20478;-70
2023/08/09 04:12:35;;;;;;;4.88;2.25;;;;;;;15.92;88.70;100668.22;4991163;28;20034;-70
2023/08/09 04:15:00;;;;;;;3.63;2.20;;;;;;;15.85;87.83;100641.22;4991387;28;20029;-71
2023/08/09 04:17:26;;;;;;;4.80;2.15;;;;;;;16.30;87.51;100692.34;4991973;28;20030;-71
2023/08/09 04:19:51;;;;;;;3.03;2.20;;;;;;;16.40;87.25;100697.69;4974170;28;20044;-70
2023/08/09 04:22:18;;;;;;;3.53;2.05;;;;;;;16.47;86.27;100708.25;4991756;28;20073;-71
2023/08/09 04:24:44;;;;;;;5.07;2.72;;;;;;;15.81;86.40;100588.19;4991694;28;20111;-71
2023/08/09 04:27:10;;;;;;;7.03;2.63;;;;;;;16.37;86.67;100684.63;4991423;28;20117;-70
2023/08/09 04:29:35;;;;;;;4.88;2.50;;;;;;;16.41;86.48;100705.56;4991481;28;20046;-70
2023/08/09 04:32:01;;;;;;;10.15;2.50;;;;;;;16.37;87.14;100706.34;4991378;28;20030;-70
2023/08/09 04:34:26;;;;;;;3.78;2.47;;;;;;;16.46;87.17;100703.00;4991815;28;20070;-71
2023/08/09 04:36:52;;;;;;;9.25;3.10;;;;;;;16.54;87.15;100698.81;4973528;28;20062;-71
2023/08/09 04:39:23;;;;;;;7.22;2.60;;;;;;;16.69;86.57;100697.31;4971679;28;20030;-71
2023/08/09 04:41:50;;;;;;;4.03;2.97;;;;;;;16.72;86.33;100692.13;4953602;28;20612;-72
2023/08/09 04:44:17;;;;;;;3.35;2.60;;;;;;;16.71;87.23;100703.41;4970155;28;20394;-73
2023/08/09 04:46:44;;;;;;;5.60;2.50;;;;;;;16.13;88.32;100619.09;4970941;28;20035;-71
2023/08/09 04:49:09;;;;;;;5.68;2.45;;;;;;;16.34;89.73;100688.06;4970119;28;20096;-72
2023/08/09 04:51:34;;;;;;;4.15;2.50;;;;;;;16.33;90.69;100708.00;4971837;28;20042;-71
2023/08/09 04:54:20;;;;;;;4.07;2.90;;;;;;;16.25;91.77;100691.38;4947626;28;20039;-72
2023/08/09 04:56:47;;;;;;;6.38;2.50;;;;;;;16.51;91.28;100709.19;4949727;28;20047;-71
2023/08/09 04:59:13;;;;;;;5.47;3.05;;;;;;;16.77;90.39;100709.59;4958273;28;20042;-72
2023/08/09 05:01:39;;;;;;;4.38;2.97;;;;;;;17.00;89.62;100709.09;4955892;28;20035;-71
2023/08/09 05:04:05;;;;;;;6.95;3.20;;;;;;;17.17;88.81;100691.09;4949783;29;20035;-73
2023/08/09 05:06:30;;;;;;;3.60;2.88;;;;;;;17.23;88.58;100706.78;4948441;29;20098;-72
2023/08/09 05:08:56;;;;;;;8.77;3.10;;;;;;;17.31;88.37;100709.53;4948586;29;20043;-71
2023/08/09 05:11:21;;;;;;;6.00;2.85;;;;;;;17.46;87.59;100709.72;4949153;29;20070;-70
2023/08/09 05:13:46;;;;;;;9.20;2.83;;;;;;;17.62;86.54;100715.13;4949655;29;20047;-71
2023/08/09 05:16:12;;;;;;;6.35;2.67;;;;;;;17.69;85.72;100708.25;4948713;29;20398;-71
2023/08/09 05:18:38;;;;;;;3.95;2.70;;;;;;;17.79;85.32;100697.03;4947817;28;20027;-70
2023/08/09 05:21:04;;;;;;;3.40;2.28;;;;;;;18.04;85.08;100721.69;4948500;28;20064;-70
2023/08/09 05:23:29;;;;;;;7.00;2.60;;;;;;;18.09;84.42;100712.19;4947248;28;20039;-71
2023/08/09 05:25:55;;;;;;;9.02;5.03;;;;;;;18.30;84.42;100730.66;4964333;28;20047;-71
2023/08/09 05:28:21;;;;;;;11.85;6.50;;;;;;;18.40;83.80;100727.28;4970552;28;20062;-71
2023/08/09 05:30:46;;;;;;;9.85;7.38;;;;;;;18.50;83.72;100729.09;4970896;28;20019;-72
2023/08/09 05:33:12;;;;;;;14.45;7.05;;;;;;;18.58;83.30;100735.28;4970955;28;20034;-71
2023/08/09 05:35:37;;;;;;;13.05;8.10;;;;;;;18.67;81.79;100733.59;4970097;28;20034;-72
2023/08/09 05:38:03;;;;;;;13.30;7.07;;;;;;;18.81;80.91;100721.50;4970312;28;20030;-75
2023/08/09 05:40:28;;;;;;;10.85;5.78;;;;;;;18.85;79.87;100738.94;4969732;28;20026;-70
2023/08/09 05:42:54;;;;;;;7.05;4.47;;;;;;;18.93;79.22;100739.06;4970670;28;20033;-71
2023/08/09 05:45:19;;;;;;;9.73;4.38;;;;;;;19.04;79.17;100734.78;4970593;28;20030;-71
2023/08/09 05:47:44;;;;;;;6.53;4.00;;;;;;;19.11;80.60;100726.97;4970619;28;20187;-71
2023/08/09 05:50:10;;;;;;;5.90;3.60;;;;;;;19.00;82.64;100704.19;4970636;28;20039;-71
2023/08/09 05:52:36;;;;;;;5.30;3.30;;;;;;;19.22;82.07;100741.84;4971047;28;20031;-72
2023/08/09 05:55:02;;;;;;;4.25;2.92;;;;;;;19.31;81.46;100748.00;4970202;28;20042;-70
2023/08/09 05:57:28;;;;;;;7.18;2.78;;;;;;;19.31;81.31;100711.34;4970917;28;20091;-72
2023/08/09 05:59:54;;;;;;;3.33;2.50;;;;;;;19.42;79.68;100717.50;4970734;28;20055;-70
2023/08/09 06:02:19;;;;;;;3.15;2.42;;;;;;;19.63;78.47;100728.97;4970442;28;20519;-70
2023/08/09 06:04:45;;;;;;;3.88;2.70;;;;;;;19.76;78.40;100749.06;4973203;28;20034;-72
2023/08/09 06:07:11;;;;;;;4.18;2.30;;;;;;;19.71;79.40;100745.56;4977780;28;20019;-71
2023/08/09 06:09:38;;;;;;;3.75;2.47;;;;;;;19.82;78.87;100743.00;4969889;28;20034;-73
2023/08/09 06:12:04;;;;;;;4.15;2.50;;;;;;;19.59;77.85;100691.41;4970371;28;20023;-72
2023/08/09 06:14:30;;;;;;;4.30;2.20;;;;;;;19.95;76.13;100728.19;4969358;28;20035;-72
2023/08/09 06:16:56;;;;;;;5.38;2.38;;;;;;;20.18;75.71;100747.47;4968835;28;20478;-72
2023/08/09 06:19:22;;;;;;;3.53;2.08;;;;;;;20.36;74.22;100738.75;4967943;28;20043;-70
2023/08/09 06:21:47;;;;;;;4.35;2.53;;;;;;;20.36;74.40;100736.16;4968876;28;20062;-77
2023/08/09 06:24:13;;;;;;;6.85;2.40;;;;;;;20.11;73.68;100674.97;4969660;28;20410;-72
2023/08/09 06:26:38;;;;;;;12.65;2.95;;;;;;;20.45;72.96;100734.38;4970452;28;20029;-72
2023/08/09 06:29:04;;;;;;;6.80;2.15;;;;;;;20.12;73.55;100684.53;4966488;28;20061;-71
2023/08/09 06:31:29;;;;;;;6.97;2.50;;;;;;;20.49;73.34;100747.50;4968695;28;20050;-72
2023/08/09 06:33:55;;;;;;;3.10;1.65;;;;;;;20.53;72.28;100716.91;4969438;28;20015;-72
2023/08/09 06:36:20;;;;;;;6.30;1.80;;;;;;;20.53;72.74;100717.75;4973911;28;20442;-72
2023/08/09 06:38:45;;;;;;;5.90;1.95;;;;;;;20.63;72.10;100725.66;4973410;28;20031;-73
2023/08/09 06:41:11;;;;;;;5.25;1.90;;;;;;;20.79;71.32;100735.28;4956702;28;20031;-72
2023/08/09 06:43:36;;;;;;;5.07;2.30;;;;;;;20.81;73.05;100712.56;4973797;28;20027;-72
2023/08/09 06:46:02;;;;;;;4.82;1.95;;;;;;;20.95;73.27;100733.53;4973587;28;20070;-72
2023/08/09 06:48:29;;;;;;;4.70;1.73;;;;;;;20.96;73.56;100727.41;4973634;28;20031;-72
2023/08/09 06:50:58;;;;;;;4.88;1.90;;;;;;;20.88;73.17;100723.03;4973877;28;20105;-72
2023/08/09 06:53:24;;;;;;;5.38;2.10;;;;;;;20.87;75.67;100727.41;4973235;28;20031;-72
2023/08/09 06:55:50;;;;;;;6.15;2.25;;;;;;;20.76;71.99;100701.19;4973940;28;20453;-72
2023/08/09 06:58:16;;;;;;;2.78;1.63;;;;;;;20.82;72.81;100708.16;4972076;28;20038;-72
2023/08/09 07:00:41;;;;;;;3.15;1.58;;;;;;;20.98;71.23;100709.00;4972468;28;20074;-73
2023/08/09 07:05:43;;;;;;;3.25;1.42;;;;;;;21.25;71.46;100692.31;5143581;23;20119;-71
2023/08/09 07:08:09;;;;;;;6.00;1.40;;;;;;;20.92;69.84;100627.66;5032410;28;20029;-72
2023/08/09 07:10:35;;;;;;;5.38;1.85;;;;;;;21.53;68.64;100701.84;5017362;28;20080;-73
2023/08/09 07:13:00;;;;;;;4.88;1.30;;;;;;;21.73;66.19;100697.41;5013812;28;20026;-73
2023/08/09 07:15:27;;;;;;;1.58;1.20;;;;;;;21.77;66.26;100698.22;5032268;28;20113;-73
2023/08/09 07:17:52;;;;;;;2.58;1.20;;;;;;;21.79;65.75;100692.09;5032534;28;20017;-74
2023/08/09 07:20:18;;;;;;;3.00;1.63;;;;;;;22.02;67.77;100696.34;5032649;28;20033;-74
2023/08/09 07:22:45;;;;;;;3.38;1.25;;;;;;;22.14;64.99;100696.25;5032691;28;20123;-73
2023/08/09 07:25:13;;;;;;;5.35;1.70;;;;;;;22.07;64.52;100672.63;5030226;28;20520;-73
2023/08/09 07:27:49;;;;;;;12.83;3.77;;;;;;;22.21;63.61;100691.81;5032455;28;20025;-73
2023/08/09 07:30:16;;;;;;;9.60;2.10;;;;;;;22.23;60.52;100684.78;5029673;28;20542;-75
2023/08/09 07:32:42;;;;;;;9.02;2.88;;;;;;;22.02;61.78;100642.88;5032179;28;20073;-73
2023/08/09 07:35:09;;;;;;;13.98;4.50;;;;;;;22.37;60.39;100695.22;5032244;28;20127;-73
2023/08/09 07:37:36;;;;;;;20.25;6.10;;;;;;;22.57;61.24;100689.78;5029642;28;20075;-72
2023/08/09 07:40:05;;;;;;;19.38;4.63;;;;;;;22.62;58.62;100659.03;5032167;28;20075;-72
2023/08/09 07:42:31;;;;;;;7.57;2.95;;;;;;;22.93;63.18;100668.38;5025466;28;20515;-72
2023/08/09 07:44:58;;;;;;;7.15;1.80;;;;;;;23.03;62.21;100679.66;5027282;28;20037;-73
2023/08/09 07:47:24;;;;;;;6.13;1.77;;;;;;;23.08;59.56;100686.63;5030723;28;20081;-72
2023/08/09 07:49:50;;;;;;;4.53;1.90;;;;;;;23.04;60.83;100673.50;5012755;28;20041;-73
2023/08/09 07:52:15;;;;;;;2.47;1.70;;;;;;;22.99;57.11;100673.59;5012751;28;20025;-73
2023/08/09 07:54:41;;;;;;;18.95;3.10;;;;;;;23.19;54.03;100660.22;5012643;28;20042;-73
2023/08/09 07:57:06;;;;;;;11.02;2.45;;;;;;;23.29;57.36;100660.09;5012601;28;20028;-73
2023/08/09 07:59:32;;;;;;;4.07;1.38;;;;;;;23.46;50.84;100657.25;5012495;28;20029;-73
2023/08/09 08:01:58;;;;;;;2.20;1.25;;;;;;;23.31;55.57;100595.09;5012347;28;20030;-73
2023/08/09 08:04:24;;;;;;;3.25;1.55;;;;;;;23.86;51.56;100649.63;5012354;28;20555;-73
2023/08/09 08:06:49;;;;;;;1.58;1.00;;;;;;;24.04;50.63;100652.91;5012680;28;20038;-73
2023/08/09 08:09:16;;;;;;;6.63;1.42;;;;;;;23.89;50.16;100604.75;4977723;28;20050;-73
2023/08/09 08:11:43;;;;;;;4.03;1.50;;;;;;;24.23;49.18;100632.38;5012360;28;20400;-73
2023/08/09 08:14:09;;;;;;;11.38;3.20;;;;;;;24.41;49.73;100647.00;5012244;28;20524;-73
2023/08/09 08:16:35;;;;;;;5.28;1.50;;;;;;;24.46;49.82;100639.91;5011968;28;20112;-73
2023/08/09 08:19:01;;;;;;;5.63;1.40;;;;;;;24.43;52.31;100634.66;5012271;28;20116;-73
2023/08/09 08:21:27;;;;;;;5.50;0.90;;;;;;;24.46;52.90;100631.09;5012155;28;20033;-73
2023/08/09 08:23:53;;;;;;;2.58;1.00;;;;;;;24.43;51.27;100628.53;5012092;28;20026;-73
2023/08/09 08:26:18;;;;;;;1.73;1.02;;;;;;;24.59;48.71;100635.25;5012081;28;20061;-73
2023/08/09 08:28:44;;;;;;;13.02;1.63;;;;;;;24.79;47.60;100631.41;5012007;28;20030;-73
2023/08/09 08:31:09;;;;;;;10.48;2.90;;;;;;;24.95;46.95;100627.53;5011866;28;20029;-73
2023/08/09 08:33:35;;;;;;;2.50;1.10;;;;;;;25.02;51.25;100629.16;5011540;28;20552;-73
2023/08/09 08:36:01;;;;;;;3.30;1.00;;;;;;;25.08;48.26;100622.88;4994173;28;20120;-72
2023/08/09 08:38:27;;;;;;;3.13;1.10;;;;;;;25.09;46.38;100619.34;4994140;28;20457;-73
2023/08/09 08:40:54;;;;;;;2.60;1.08;;;;;;;25.19;47.60;100623.50;5011754;28;20108;-73
2023/08/09 08:43:20;;;;;;;5.88;1.13;;;;;;;25.07;46.51;100578.84;5011815;28;20029;-73
2023/08/09 08:45:47;;;;;;;3.50;1.10;;;;;;;25.35;46.40;100620.56;5011508;28;20104;-73
2023/08/09 08:48:13;;;;;;;11.98;2.67;;;;;;;25.08;51.86;100562.13;5027042;28;20026;-73
2023/08/09 08:50:41;;;;;;;2.53;1.00;;;;;;;25.51;45.49;100613.19;5011737;28;20049;-74
2023/08/09 08:53:08;;;;;;;1.58;1.00;;;;;;;25.62;47.63;100607.63;5011453;28;20068;-73
2023/08/09 08:55:33;;;;;;;1.90;1.23;;;;;;;25.65;46.67;100605.78;5011505;28;20047;-73
2023/08/09 08:57:59;;;;;;;3.08;1.15;;;;;;;25.71;47.68;100596.84;5011507;28;20037;-73
2023/08/09 09:00:24;;;;;;;2.78;1.10;;;;;;;25.82;49.30;100599.22;5011007;28;20030;-74
2023/08/09 09:02:50;;;;;;;3.15;1.00;;;;;;;25.82;48.54;100597.47;5011410;28;20400;-73
2023/08/09 09:05:17;;;;;;;2.97;1.00;;;;;;;25.62;44.53;100554.75;5011373;28;20394;-73
2023/08/09 09:07:46;;;;;;;4.45;1.40;;;;;;;25.92;43.22;100590.16;5011399;28;20022;-73
2023/08/09 09:10:12;;;;;;;1.90;1.00;;;;;;;25.99;47.28;100577.66;5011153;28;20033;-74
2023/08/09 09:12:39;;;;;;;1.55;1.00;;;;;;;26.08;46.11;100574.81;5011178;28;20030;-73
2023/08/09 09:15:08;;;;;;;12.98;1.80;;;;;;;26.03;47.00;100559.94;4976318;28;20069;-74
2023/08/09 09:17:42;;;;;;;5.07;1.40;;;;;;;26.17;45.00;100560.47;5010989;28;20428;-74
2023/08/09 09:20:23;;;;;;;5.78;1.20;;;;;;;26.35;46.27;100555.59;4976569;28;20042;-73
2023/08/09 09:22:50;;;;;;;2.47;1.10;;;;;;;26.38;44.50;100551.09;5011028;28;20026;-74
2023/08/09 09:25:17;;;;;;;12.40;2.75;;;;;;;26.35;45.75;100552.94;5010808;28;20044;-74
2023/08/09 09:27:47;;;;;;;14.18;2.92;;;;;;;26.64;43.30;100555.66;5010856;28;20033;-73
2023/08/09 09:30:13;;;;;;;;;;;;;;;26.86;39.35;100546.25;5014376;28;20038;-73
2023/08/09 09:32:53;;;;;;;2.85;1.02;;;;;;;26.71;39.39;100499.84;5021709;28;19913;-73
2023/08/09 09:35:19;;;;;;;3.10;1.42;;;;;;;27.02;43.10;100539.56;5030412;28;20679;-74
2023/08/09 09:37:51;;;;;;;3.47;1.50;;;;;;;27.10;40.98;100539.31;5030376;28;20044;-73
2023/08/09 09:40:25;;;;;;;1.00;0.90;;;;;;;27.16;41.38;100517.06;5030358;28;20025;-74
2023/08/09 09:42:55;;;;;;;3.53;1.00;;;;;;;27.32;40.71;100531.56;5030212;28;20034;-73
2023/08/09 09:45:23;;;;;;;2.38;0.68;;;;;;;27.35;41.03;100533.25;5030124;28;20104;-73
2023/08/09 09:47:52;;;;;;;1.10;0.80;;;;;;;27.23;38.86;100485.03;5023962;28;20038;-73
2023/08/09 09:50:21;;;;;;;2.45;1.10;;;;;;;27.57;40.57;100526.38;5030037;28;20092;-73
2023/08/09 09:52:48;;;;;;;1.52;0.90;;;;;;;27.58;42.39;100517.50;5030393;28;20041;-73
2023/08/09 09:55:16;;;;;;;8.00;1.20;;;;;;;27.41;40.93;100501.28;5030383;28;20036;-74
2023/08/09 09:57:41;;;;;;;4.63;1.23;;;;;;;27.64;39.12;100520.84;5030325;28;20023;-73
2023/08/09 10:00:09;;;;;;;5.05;1.30;;;;;;;27.91;38.01;100521.72;5030110;28;20026;-73
2023/08/09 10:02:42;;;;;;;2.25;0.80;;;;;;;27.83;36.93;100460.97;5030232;28;20082;-73
2023/08/09 10:05:11;;;;;;;2.33;0.90;;;;;;;28.34;35.36;100514.91;5030233;28;20508;-73
2023/08/09 10:07:38;;;;;;;;;;;;;;;28.46;37.31;100512.72;5012885;28;20423;-74
2023/08/09 10:10:03;;;;;;;2.35;1.15;;;;;;;28.47;34.87;100503.84;5032156;28;19913;-73
2023/08/09 10:12:33;;;;;;;6.25;1.63;;;;;;;28.64;36.93;100498.75;5034233;28;20033;-73
2023/08/09 10:15:00;;;;;;;2.25;1.10;;;;;;;28.67;38.49;100503.09;5034082;28;20104;-74
2023/08/09 10:17:31;;;;;;;2.70;1.00;;;;;;;28.69;37.86;100482.69;4999488;28;20128;-73
2023/08/09 10:19:59;;;;;;;0.80;0.80;;;;;;;28.68;36.73;100484.47;4999579;28;20527;-74
2023/08/09 10:22:26;;;;;;;3.85;0.80;;;;;;;28.84;36.35;100490.03;5033897;28;20083;-73
2023/08/09 10:24:56;;;;;;;3.13;1.08;;;;;;;28.92;37.09;100457.00;5033733;28;20028;-73
2023/08/09 10:27:52;;;;;;;10.90;1.25;;;;;;;29.36;33.85;100491.59;5033946;28;20104;-73
2023/08/09 10:30:23;;;;;;;2.78;0.80;;;;;;;29.52;32.26;100483.81;5033992;28;20029;-73
2023/08/09 10:32:53;;;;;;;6.82;1.80;;;;;;;29.70;33.86;100487.50;5033538;28;20036;-73
2023/08/09 10:35:44;;;;;;;9.75;1.20;;;;;;;29.89;32.07;100481.38;5031059;28;20479;-73
2023/08/09 10:38:13;;;;;;;1.63;1.00;;;;;;;30.02;36.37;100471.97;5033401;28;20029;-73
2023/08/09 10:40:42;;;;;;;2.85;1.10;;;;;;;29.68;34.03;100465.41;5033764;28;20033;-73
2023/08/09 10:43:30;;;;;;;3.05;0.80;;;;;;;29.49;34.18;100468.84;4964526;28;20101;-74
2023/08/09 10:45:56;;;;;;;2.00;0.80;;;;;;;29.04;34.36;100464.47;4991813;28;20039;-74
2023/08/09 10:48:26;;;;;;;5.72;1.38;;;;;;;29.14;37.17;100452.53;4991707;28;20042;-74
2023/08/09 10:51:10;;;;;;;;;;;;;;;29.40;34.68;100453.28;4992221;28;20410;-74
2023/08/09 10:53:57;;;;;;;8.63;1.83;;;;;;;29.74;31.47;100449.19;4991563;28;19937;-73
2023/08/09 10:56:37;;;;;;;4.45;1.20;;;;;;;29.96;32.29;100434.97;4991416;28;20034;-73
2023/08/09 10:59:12;;;;;;;3.03;1.13;;;;;;;30.21;34.67;100448.03;4991204;28;20074;-74
2023/08/09 11:01:40;;;;;;;3.30;1.38;;;;;;;30.23;31.81;100448.81;4991505;28;20121;-74
2023/08/09 11:04:10;;;;;;;2.58;1.00;;;;;;;30.23;31.22;100443.47;4991167;28;20093;-73
2023/08/09 11:06:40;;;;;;;4.78;1.13;;;;;;;30.29;29.02;100405.06;4991456;28;20034;-73
2023/08/09 11:09:32;;;;;;;5.13;1.00;;;;;;;29.90;30.13;100441.44;4991072;28;20048;-73
2023/08/09 11:11:57;;;;;;;4.22;1.33;;;;;;;30.14;30.54;100430.59;4933190;29;20040;-74
2023/08/09 11:14:23;;;;;;;6.82;1.75;;;;;;;30.37;35.31;100429.56;4935132;28;20165;-73
2023/08/09 11:16:50;;;;;;;1.48;0.80;;;;;;;30.26;30.87;100379.44;4971563;28;20518;-73
2023/08/09 11:19:21;;;;;;;3.60;1.20;;;;;;;30.73;32.95;100439.44;4971564;28;20039;-73
2023/08/09 11:21:52;;;;;;;3.50;0.90;;;;;;;30.69;30.56;100424.53;4970410;28;20035;-73
2023/08/09 11:24:22;;;;;;;3.92;1.00;;;;;;;30.71;29.23;100421.81;4971364;28;20125;-73
2023/08/09 11:26:51;;;;;;;1.55;0.88;;;;;;;30.27;30.21;100332.38;4971619;28;20171;-73